createdAt,value
2023-07-25T00:00:00.000Z,100
2023-07-25T00:01:16.608Z,100
2023-07-25T00:02:31.832Z,100
2023-07-25T00:03:48.028Z,100
2023-07-25T00:04:46.222Z,100
2023-07-25T00:06:20.000Z,100
2023-07-25T00:07:36.000Z,100
2023-07-25T00:08:34.809Z,100
2023-07-25T00:10:08.000Z,100
2023-07-25T00:11:24.000Z,100
2023-07-25T00:12:40.000Z,100
2023-07-25T00:13:56.000Z,100
2023-07-25T00:15:12.000Z,100
2023-07-25T00:16:28.990Z,100
2023-07-25T00:17:45.000Z,100
2023-07-25T00:19:01.000Z,100
2023-07-25T00:20:17.000Z,100
2023-07-25T00:21:33.000Z,100
2023-07-25T00:22:49.000Z,100
2023-07-25T00:24:06.171Z,100
2023-07-25T00:25:22.366Z,100
2023-07-25T00:26:37.567Z,100
2023-07-25T00:27:53.000Z,100
2023-07-25T00:29:09.000Z,100
2023-07-25T00:30:26.159Z,100
2023-07-25T00:31:24.355Z,100
2023-07-25T00:32:58.550Z,100
2023-07-25T00:34:14.000Z,100
2023-07-25T00:35:30.000Z,100
2023-07-25T00:36:47.000Z,100
2023-07-25T00:37:45.332Z,100
2023-07-25T00:39:01.527Z,100
2023-07-25T00:40:17.722Z,100
2023-07-25T00:41:51.000Z,100
2023-07-25T00:42:50.113Z,100
2023-07-25T00:44:24.309Z,100
2023-07-25T00:45:40.000Z,100
2023-07-25T00:46:38.699Z,100
2023-07-25T00:48:12.894Z,100
2023-07-25T00:49:29.000Z,100
2023-07-25T00:50:45.282Z,100
2023-07-25T00:52:01.000Z,100
2023-07-25T00:52:59.674Z,100
2023-07-25T00:54:33.000Z,100
2023-07-25T00:55:32.064Z,100
2023-07-25T00:57:06.259Z,100
2023-07-25T00:58:22.000Z,100
2023-07-25T00:59:38.000Z,100
2023-07-25T01:00:54.837Z,100
2023-07-25T01:02:11.000Z,100
2023-07-25T01:03:27.240Z,100
2023-07-25T01:04:42.467Z,100
2023-07-25T01:05:40.661Z,100
2023-07-25T01:07:14.000Z,100
2023-07-25T01:08:50.000Z,100
2023-07-25T01:09:29.248Z,100
2023-07-25T01:11:02.000Z,100
2023-07-25T01:12:18.655Z,100
2023-07-25T01:13:34.851Z,100
2023-07-25T01:14:51.000Z,100
2023-07-25T01:16:07.240Z,100
2023-07-25T01:17:05.435Z,100
2023-07-25T01:18:39.000Z,100
2023-07-25T01:19:55.000Z,100
2023-07-25T01:21:31.000Z,100
2023-07-25T01:22:28.000Z,100
2023-07-25T01:23:44.410Z,100
2023-07-25T01:25:00.606Z,100
2023-07-25T01:26:16.000Z,100
2023-07-25T01:27:32.987Z,100
2023-07-25T01:28:49.188Z,100
2023-07-25T01:30:04.000Z,100
2023-07-25T01:31:02.608Z,100
2023-07-25T01:32:36.000Z,100
2023-07-25T01:33:34.999Z,100
2023-07-25T01:35:09.194Z,100
2023-07-25T01:36:25.389Z,100
2023-07-25T01:37:41.000Z,100
2023-07-25T01:38:57.000Z,100
2023-07-25T01:40:13.000Z,100
2023-07-25T01:41:30.169Z,100
2023-07-25T01:42:45.000Z,100
2023-07-25T01:44:01.000Z,100
2023-07-25T01:45:17.000Z,100
2023-07-25T01:46:33.000Z,100
2023-07-25T01:47:50.000Z,100
2023-07-25T01:49:06.356Z,100
2023-07-25T01:50:22.000Z,100
2023-07-25T01:51:38.000Z,100
2023-07-25T01:52:54.942Z,100
2023-07-25T01:54:11.145Z,100
2023-07-25T01:55:26.000Z,100
2023-07-25T01:56:42.000Z,100
2023-07-25T01:57:58.748Z,100
2023-07-25T01:59:13.000Z,100
2023-07-25T02:00:30.000Z,100
2023-07-25T02:01:46.351Z,100
2023-07-25T02:03:02.547Z,100
2023-07-25T02:04:18.000Z,100
2023-07-25T02:05:34.000Z,100
2023-07-25T02:06:51.000Z,100
2023-07-25T02:08:07.328Z,100
2023-07-25T02:09:23.000Z,100
2023-07-25T02:10:39.718Z,100
2023-07-25T02:11:55.000Z,100
2023-07-25T02:13:12.108Z,100
2023-07-25T02:14:28.302Z,100
2023-07-25T02:15:44.498Z,100
2023-07-25T02:17:00.000Z,100
2023-07-25T02:18:16.889Z,100
2023-07-25T02:19:33.000Z,100
2023-07-25T02:20:49.000Z,100
2023-07-25T02:22:05.000Z,100
2023-07-25T02:23:21.669Z,100
2023-07-25T02:24:37.000Z,100
2023-07-25T02:25:54.058Z,100
2023-07-25T02:27:10.254Z,100
2023-07-25T02:28:26.000Z,100
2023-07-25T02:29:42.643Z,100
2023-07-25T02:30:58.840Z,100
2023-07-25T02:32:15.032Z,100
2023-07-25T02:33:31.229Z,100
2023-07-25T02:34:47.424Z,100
2023-07-25T02:36:03.619Z,100
2023-07-25T02:37:19.827Z,100
2023-07-25T02:38:36.010Z,100
2023-07-25T02:39:52.205Z,100
2023-07-25T02:41:08.400Z,100
2023-07-25T02:42:24.000Z,100
2023-07-25T02:43:40.000Z,100
2023-07-25T02:44:56.985Z,100
2023-07-25T02:46:13.000Z,100
2023-07-25T02:47:29.000Z,100
2023-07-25T02:48:45.000Z,100
2023-07-25T02:50:01.000Z,100
2023-07-25T02:51:18.247Z,100
2023-07-25T02:52:33.000Z,100
2023-07-25T02:53:49.000Z,100
2023-07-25T02:55:05.000Z,100
2023-07-25T02:56:22.102Z,100
2023-07-25T02:57:38.000Z,100
2023-07-25T02:58:54.492Z,100
2023-07-25T03:00:10.697Z,100
2023-07-25T03:01:26.000Z,100
2023-07-25T03:02:43.000Z,100
2023-07-25T03:03:59.000Z,100
2023-07-25T03:05:15.476Z,100
2023-07-25T03:06:31.784Z,100
2023-07-25T03:07:47.979Z,100
2023-07-25T03:09:04.000Z,100
2023-07-25T03:10:20.000Z,100
2023-07-25T03:11:36.000Z,100
2023-07-25T03:12:52.763Z,100
2023-07-25T03:14:08.955Z,100
2023-07-25T03:15:25.150Z,100
2023-07-25T03:16:41.000Z,99.9
2023-07-25T03:17:57.550Z,100
2023-07-25T03:19:12.762Z,98.5
2023-07-25T03:20:28.000Z,98.5
2023-07-25T03:21:45.153Z,99
2023-07-25T03:23:01.000Z,98.5
2023-07-25T03:24:17.000Z,98.7
2023-07-25T03:25:33.737Z,99
2023-07-25T03:26:49.000Z,99.2
2023-07-25T03:28:06.000Z,97.7
2023-07-25T03:29:22.000Z,97.5
2023-07-25T03:30:38.000Z,98.2
2023-07-25T03:31:54.000Z,98.6
2023-07-25T03:33:10.000Z,98.8
2023-07-25T03:34:27.103Z,98.4
2023-07-25T03:35:43.000Z,97.8
2023-07-25T03:36:59.000Z,97.5
2023-07-25T03:38:15.000Z,97.2
2023-07-25T03:39:31.000Z,97.5
2023-07-25T03:40:48.000Z,97.8
2023-07-25T03:42:04.000Z,97.8
2023-07-25T03:43:20.000Z,98.1
2023-07-25T03:44:36.000Z,98.1
2023-07-25T03:45:52.000Z,98.6
2023-07-25T03:47:09.000Z,98.4
2023-07-25T03:48:25.000Z,98.5
2023-07-25T03:49:41.000Z,99
2023-07-25T03:50:57.684Z,98.7
2023-07-25T03:52:13.949Z,99
2023-07-25T03:53:30.000Z,99.2
2023-07-25T03:54:46.000Z,99
2023-07-25T03:56:02.000Z,99
2023-07-25T03:57:19.005Z,99.5
2023-07-25T03:58:34.263Z,99.5
2023-07-25T03:59:49.468Z,99.2
2023-07-25T04:01:05.000Z,98.6
2023-07-25T04:02:21.854Z,98.6
2023-07-25T04:03:38.047Z,98.2
2023-07-25T04:04:54.000Z,98.4
2023-07-25T04:06:10.000Z,98.6
2023-07-25T04:07:26.000Z,98.5
2023-07-25T04:08:42.000Z,98.1
2023-07-25T04:09:59.000Z,98.5
2023-07-25T04:11:15.000Z,98.4
2023-07-25T04:12:31.000Z,97.6
2023-07-25T04:13:47.000Z,96.9
2023-07-25T04:15:03.000Z,97.4
2023-07-25T04:16:19.000Z,97.7
2023-07-25T04:17:36.000Z,98.1
2023-07-25T04:18:52.367Z,97.7
2023-07-25T04:20:07.000Z,97.5
2023-07-25T04:21:23.782Z,97.9
2023-07-25T04:22:39.000Z,97.9
2023-07-25T04:23:56.162Z,97.8
2023-07-25T04:25:12.000Z,97.8
2023-07-25T04:26:28.000Z,98.3
2023-07-25T04:27:44.000Z,98.2
2023-07-25T04:29:00.000Z,98.4
2023-07-25T04:30:17.000Z,98.5
2023-07-25T04:31:33.000Z,99
2023-07-25T04:32:49.000Z,99.2
2023-07-25T04:34:05.000Z,99
2023-07-25T04:35:21.000Z,99.2
2023-07-25T04:36:38.000Z,99
2023-07-25T04:37:54.000Z,99.3
2023-07-25T04:39:10.000Z,99
2023-07-25T04:40:26.000Z,99
2023-07-25T04:41:42.000Z,99.3
2023-07-25T04:42:59.000Z,99.5
2023-07-25T04:44:15.000Z,99.2
2023-07-25T04:45:31.434Z,99.2
2023-07-25T04:46:47.000Z,99
2023-07-25T04:48:03.000Z,99.3
2023-07-25T04:49:20.000Z,99.8
2023-07-25T04:50:36.000Z,99.3
2023-07-25T04:51:52.000Z,99.2
2023-07-25T04:53:08.000Z,99.7
2023-07-25T04:54:24.782Z,99.2
2023-07-25T04:55:40.977Z,98.6
2023-07-25T04:56:57.000Z,98.7
2023-07-25T04:58:13.363Z,98.7
2023-07-25T04:59:11.556Z,98.6
2023-07-25T05:00:45.000Z,98.4
2023-07-25T05:01:43.942Z,99
2023-07-25T05:03:18.000Z,98.6
2023-07-25T05:04:34.328Z,98.1
2023-07-25T05:05:50.000Z,98.3
2023-07-25T05:07:06.000Z,98.3
2023-07-25T05:08:23.022Z,97.6
2023-07-25T05:09:39.272Z,97.7
2023-07-25T05:10:55.000Z,97.5
2023-07-25T05:12:11.000Z,97.6
2023-07-25T05:13:28.000Z,97.4
2023-07-25T05:14:44.000Z,96.8
2023-07-25T05:16:00.519Z,96.8
2023-07-25T05:17:16.000Z,96.9
2023-07-25T05:18:32.000Z,96.7
2023-07-25T05:19:48.000Z,97
2023-07-25T05:21:04.000Z,96.8
2023-07-25T05:22:20.615Z,96.8
2023-07-25T05:23:36.808Z,97
2023-07-25T05:24:53.001Z,96.8
2023-07-25T05:26:09.000Z,96.7
2023-07-25T05:27:25.000Z,96.8
2023-07-25T05:28:41.000Z,96.8
2023-07-25T05:29:57.000Z,97.2
2023-07-25T05:30:55.966Z,96.8
2023-07-25T05:32:30.159Z,96.5
2023-07-25T05:33:46.000Z,96.7
2023-07-25T05:35:02.000Z,96.9
2023-07-25T05:36:18.748Z,96.1
2023-07-25T05:37:34.000Z,96.1
2023-07-25T05:38:51.000Z,95.3
2023-07-25T05:40:07.000Z,94.1
2023-07-25T05:41:23.517Z,93.6
2023-07-25T05:42:38.736Z,94.2
2023-07-25T05:43:36.917Z,93.8
2023-07-25T05:45:11.000Z,94.2
2023-07-25T05:46:27.000Z,93.5
2023-07-25T05:47:43.000Z,93.1
2023-07-25T05:48:59.688Z,93.5
2023-07-25T05:50:15.882Z,93.1
2023-07-25T05:51:32.078Z,93.2
2023-07-25T05:52:48.268Z,92.7
2023-07-25T05:54:04.463Z,92.4
2023-07-25T05:55:20.000Z,92.7
2023-07-25T05:56:18.847Z,93.5
2023-07-25T05:57:53.000Z,93.1
2023-07-25T05:59:09.000Z,93.3
2023-07-25T06:00:25.000Z,92.9
2023-07-25T06:01:41.000Z,93.2
2023-07-25T06:02:57.000Z,93.6
2023-07-25T06:04:14.000Z,93
2023-07-25T06:05:30.000Z,94.3
2023-07-25T06:06:28.392Z,92.7
2023-07-25T06:08:01.000Z,93.2
2023-07-25T06:09:17.803Z,90.5
2023-07-25T06:10:33.000Z,91.1
2023-07-25T06:11:49.000Z,91.7
2023-07-25T06:13:05.000Z,91.3
2023-07-25T06:14:21.000Z,90.5
2023-07-25T06:15:37.000Z,89.5
2023-07-25T06:16:53.000Z,89.6
2023-07-25T06:18:10.000Z,89.3
2023-07-25T06:19:26.377Z,89
2023-07-25T06:20:42.557Z,89.7
2023-07-25T06:21:58.761Z,89
2023-07-25T06:23:14.000Z,89.2
2023-07-25T06:24:31.000Z,88
2023-07-25T06:25:47.000Z,88.1
2023-07-25T06:27:03.000Z,88.8
2023-07-25T06:28:19.716Z,89.4
2023-07-25T06:29:35.912Z,89.5
2023-07-25T06:30:52.000Z,90.1
2023-07-25T06:32:08.298Z,90.5
2023-07-25T06:33:23.000Z,89.8
2023-07-25T06:34:21.708Z,89.8
2023-07-25T06:35:55.000Z,89.8
2023-07-25T06:37:12.000Z,90
2023-07-25T06:38:28.000Z,89.6
2023-07-25T06:39:44.000Z,90.4
2023-07-25T06:41:00.672Z,90.5
2023-07-25T06:42:16.000Z,89.9
2023-07-25T06:43:33.064Z,90.1
2023-07-25T06:44:49.253Z,89.8
2023-07-25T06:46:04.000Z,89.9
2023-07-25T06:47:20.654Z,89.6
2023-07-25T06:48:36.000Z,90
2023-07-25T06:49:53.000Z,87.3
2023-07-25T06:51:09.230Z,86.7
2023-07-25T06:52:25.426Z,87.7
2023-07-25T06:53:41.000Z,87.3
2023-07-25T06:54:57.815Z,88.1
2023-07-25T06:56:14.000Z,87.4
2023-07-25T06:57:30.000Z,87.8
2023-07-25T06:58:46.390Z,87.5
2023-07-25T07:00:02.000Z,84.6
2023-07-25T07:01:18.000Z,85.2
2023-07-25T07:02:34.000Z,85.3
2023-07-25T07:03:51.000Z,85.2
2023-07-25T07:05:07.000Z,84.8
2023-07-25T07:06:23.562Z,84.4
2023-07-25T07:07:39.000Z,84.6
2023-07-25T07:08:55.000Z,85.8
2023-07-25T07:10:12.138Z,85.9
2023-07-25T07:11:28.000Z,86.5
2023-07-25T07:12:26.516Z,87.3
2023-07-25T07:14:00.716Z,87.8
2023-07-25T07:15:16.000Z,88.2
2023-07-25T07:16:33.000Z,87.1
2023-07-25T07:17:49.000Z,86.6
2023-07-25T07:19:05.000Z,86.7
2023-07-25T07:20:21.679Z,85.5
2023-07-25T07:21:37.867Z,86.5
2023-07-25T07:22:54.000Z,83.2
2023-07-25T07:24:10.000Z,86.4
2023-07-25T07:25:26.446Z,85.7
2023-07-25T07:26:42.000Z,84.4
2023-07-25T07:27:58.835Z,84.5
2023-07-25T07:29:15.000Z,83.5
2023-07-25T07:30:31.000Z,82
2023-07-25T07:31:47.000Z,82.6
2023-07-25T07:33:03.000Z,82.3
2023-07-25T07:34:19.924Z,82.1
2023-07-25T07:35:35.000Z,82.4
2023-07-25T07:36:51.000Z,83
2023-07-25T07:37:49.570Z,82.5
2023-07-25T07:39:22.000Z,82.5
2023-07-25T07:40:38.000Z,82.8
2023-07-25T07:41:55.000Z,83.4
2023-07-25T07:43:11.000Z,82.9
2023-07-25T07:44:27.000Z,83.2
2023-07-25T07:45:43.746Z,83.4
2023-07-25T07:46:59.000Z,83
2023-07-25T07:48:16.000Z,83.5
2023-07-25T07:49:32.341Z,82.5
2023-07-25T07:50:48.000Z,81.5
2023-07-25T07:52:04.000Z,81.3
2023-07-25T07:53:20.000Z,81.8
2023-07-25T07:54:37.000Z,80.1
2023-07-25T07:55:53.000Z,80.9
2023-07-25T07:57:09.503Z,81.1
2023-07-25T07:58:24.708Z,80.8
2023-07-25T07:59:40.000Z,81
2023-07-25T08:00:57.000Z,80.4
2023-07-25T08:02:13.276Z,80.7
2023-07-25T08:03:29.000Z,80.7
2023-07-25T08:04:45.671Z,79.9
2023-07-25T08:06:00.882Z,80.3
2023-07-25T08:07:17.000Z,81.2
2023-07-25T08:08:33.000Z,81.3
2023-07-25T08:09:49.000Z,79.7
2023-07-25T08:11:05.000Z,79.7
2023-07-25T08:12:21.865Z,80
2023-07-25T08:13:37.000Z,79.7
2023-07-25T08:14:53.000Z,79.2
2023-07-25T08:16:09.460Z,78.8
2023-07-25T08:17:25.000Z,78.8
2023-07-25T08:18:41.000Z,79
2023-07-25T08:19:58.026Z,78.3
2023-07-25T08:21:14.000Z,77.2
2023-07-25T08:22:30.412Z,77
2023-07-25T08:23:46.614Z,77.4
2023-07-25T08:25:02.000Z,77.7
2023-07-25T08:26:18.990Z,78.3
2023-07-25T08:27:35.185Z,76.2
2023-07-25T08:28:51.380Z,76.2
2023-07-25T08:30:07.000Z,77
2023-07-25T08:31:23.000Z,76.8
2023-07-25T08:32:39.000Z,77.1
2023-07-25T08:33:56.000Z,76.9
2023-07-25T08:35:12.359Z,77.2
2023-07-25T08:36:28.000Z,76.1
2023-07-25T08:37:44.000Z,75.7
2023-07-25T08:39:00.927Z,76.1
2023-07-25T08:40:16.147Z,75.8
2023-07-25T08:41:32.356Z,75.7
2023-07-25T08:42:47.000Z,76.4
2023-07-25T08:44:03.000Z,77.5
2023-07-25T08:45:19.000Z,76.7
2023-07-25T08:46:36.141Z,74.6
2023-07-25T08:47:52.000Z,74
2023-07-25T08:49:08.000Z,74.3
2023-07-25T08:50:24.000Z,72.7
2023-07-25T08:51:40.000Z,73.1
2023-07-25T08:52:57.100Z,73.1
2023-07-25T08:54:13.000Z,72.3
2023-07-25T08:55:29.000Z,72.5
2023-07-25T08:56:45.000Z,73.2
2023-07-25T08:58:01.000Z,73.7
2023-07-25T08:59:18.000Z,73.1
2023-07-25T09:00:34.000Z,72.1
2023-07-25T09:01:50.463Z,72.8
2023-07-25T09:03:06.000Z,73.3
2023-07-25T09:04:22.844Z,73
2023-07-25T09:05:39.000Z,74
2023-07-25T09:06:55.234Z,72.3
2023-07-25T09:08:11.000Z,72.9
2023-07-25T09:09:27.000Z,73.4
2023-07-25T09:10:43.000Z,72.8
2023-07-25T09:12:00.005Z,73.5
2023-07-25T09:13:16.198Z,72.2
2023-07-25T09:14:32.390Z,72.3
2023-07-25T09:15:48.000Z,72.7
2023-07-25T09:17:04.000Z,71.3
2023-07-25T09:18:20.000Z,72.4
2023-07-25T09:19:37.000Z,72
2023-07-25T09:20:53.373Z,71.1
2023-07-25T09:22:09.000Z,71.1
2023-07-25T09:23:25.000Z,71.6
2023-07-25T09:24:41.940Z,69.9
2023-07-25T09:25:58.000Z,70.7
2023-07-25T09:27:14.000Z,70.8
2023-07-25T09:28:30.000Z,69.3
2023-07-25T09:29:46.000Z,69.4
2023-07-25T09:31:03.000Z,69.9
2023-07-25T09:32:19.274Z,69.8
2023-07-25T09:33:35.000Z,70
2023-07-25T09:34:51.000Z,69.8
2023-07-25T09:36:08.000Z,70
2023-07-25T09:37:24.273Z,70
2023-07-25T09:38:40.000Z,70.4
2023-07-25T09:39:56.000Z,70.8
2023-07-25T09:41:13.000Z,70.5
2023-07-25T09:42:29.000Z,69.6
2023-07-25T09:43:45.528Z,69.7
2023-07-25T09:45:00.000Z,70.3
2023-07-25T09:46:16.980Z,69.8
2023-07-25T09:47:33.180Z,69.2
2023-07-25T09:48:49.000Z,68.6
2023-07-25T09:50:05.561Z,68.5
2023-07-25T09:51:21.000Z,69.7
2023-07-25T09:52:37.000Z,68.7
2023-07-25T09:53:54.000Z,68.5
2023-07-25T09:55:10.000Z,68.4
2023-07-25T09:56:26.000Z,69.5
2023-07-25T09:57:42.000Z,68.8
2023-07-25T09:58:58.000Z,70.3
2023-07-25T10:00:15.000Z,68.3
2023-07-25T10:01:31.000Z,68.5
2023-07-25T10:02:29.491Z,67.2
2023-07-25T10:04:03.683Z,67
2023-07-25T10:05:19.000Z,67.4
2023-07-25T10:06:36.000Z,66.9
2023-07-25T10:07:52.000Z,67.5
2023-07-25T10:09:08.000Z,67.9
2023-07-25T10:10:24.000Z,68.7
2023-07-25T10:11:40.000Z,68.9
2023-07-25T10:12:57.032Z,68.7
2023-07-25T10:14:12.000Z,68.9
2023-07-25T10:15:10.458Z,69.8
2023-07-25T10:16:44.000Z,69
2023-07-25T10:18:00.844Z,69.8
2023-07-25T10:19:17.000Z,68
2023-07-25T10:20:33.000Z,67.8
2023-07-25T10:21:49.000Z,68.1
2023-07-25T10:23:05.630Z,68.9
2023-07-25T10:24:21.000Z,68.6
2023-07-25T10:25:38.126Z,68.4
2023-07-25T10:26:54.000Z,69.5
2023-07-25T10:27:52.508Z,68.3
2023-07-25T10:29:26.701Z,67.2
2023-07-25T10:30:42.894Z,67.4
2023-07-25T10:31:59.000Z,67.5
2023-07-25T10:33:15.000Z,68.1
2023-07-25T10:34:31.000Z,66.7
2023-07-25T10:35:47.666Z,67.2
2023-07-25T10:37:03.000Z,67.5
2023-07-25T10:38:20.064Z,67.4
2023-07-25T10:39:35.000Z,68
2023-07-25T10:40:51.461Z,68.3
2023-07-25T10:42:07.000Z,67.7
2023-07-25T10:43:23.000Z,67.2
2023-07-25T10:44:40.042Z,65.6
2023-07-25T10:45:56.000Z,67
2023-07-25T10:47:12.425Z,66.5
2023-07-25T10:48:28.618Z,64.6
2023-07-25T10:49:44.000Z,65.8
2023-07-25T10:51:01.000Z,62.6
2023-07-25T10:52:16.000Z,62.6
2023-07-25T10:53:32.000Z,63.5
2023-07-25T10:54:48.000Z,63.6
2023-07-25T10:56:04.000Z,63.3
2023-07-25T10:57:20.000Z,63.8
2023-07-25T10:58:37.000Z,63.4
2023-07-25T10:59:53.000Z,63.8
2023-07-25T11:01:09.575Z,64.6
2023-07-25T11:02:25.763Z,64.8
2023-07-25T11:03:41.000Z,64.6
2023-07-25T11:04:58.000Z,65.8
2023-07-25T11:06:14.000Z,65.5
2023-07-25T11:07:30.547Z,66
2023-07-25T11:08:45.000Z,65.9
2023-07-25T11:10:01.000Z,65.4
2023-07-25T11:11:18.146Z,66.4
2023-07-25T11:12:34.000Z,66.6
2023-07-25T11:13:50.537Z,66.1
2023-07-25T11:15:06.000Z,66.5
2023-07-25T11:16:22.000Z,67.3
2023-07-25T11:17:39.000Z,68
2023-07-25T11:18:55.314Z,69
2023-07-25T11:20:10.000Z,67.9
2023-07-25T11:21:26.000Z,66.8
2023-07-25T11:22:42.000Z,66.9
2023-07-25T11:23:59.000Z,68.2
2023-07-25T11:25:15.000Z,66.5
2023-07-25T11:26:31.000Z,65.7
2023-07-25T11:27:47.000Z,65.1
2023-07-25T11:29:03.000Z,64.7
2023-07-25T11:30:20.000Z,65.2
2023-07-25T11:31:36.241Z,64.8
2023-07-25T11:32:52.000Z,63.6
2023-07-25T11:34:08.000Z,64.7
2023-07-25T11:35:24.000Z,65.5
2023-07-25T11:36:41.000Z,66.2
2023-07-25T11:37:57.000Z,65
2023-07-25T11:39:13.000Z,66.5
2023-07-25T11:40:29.000Z,65.3
2023-07-25T11:41:27.787Z,63.8
2023-07-25T11:43:01.000Z,62.6
2023-07-25T11:44:18.178Z,60.3
2023-07-25T11:45:33.000Z,61.9
2023-07-25T11:46:49.000Z,60.3
2023-07-25T11:48:05.000Z,59.3
2023-07-25T11:49:21.000Z,60.2
2023-07-25T11:50:38.000Z,59.8
2023-07-25T11:51:54.359Z,58.7
2023-07-25T11:53:10.553Z,58.6
2023-07-25T11:54:08.746Z,60.1
2023-07-25T11:55:42.000Z,61.8
2023-07-25T11:56:59.134Z,59.4
2023-07-25T11:58:14.000Z,59
2023-07-25T11:59:30.536Z,59.9
2023-07-25T12:00:46.000Z,59.3
2023-07-25T12:02:02.000Z,58.9
2023-07-25T12:03:19.118Z,58.8
2023-07-25T12:04:35.000Z,58.4
2023-07-25T12:05:51.000Z,58.1
2023-07-25T12:07:07.000Z,57
2023-07-25T12:08:23.000Z,55.1
2023-07-25T12:09:22.084Z,56.5
2023-07-25T12:10:56.278Z,56.6
2023-07-25T12:12:12.000Z,56.5
2023-07-25T12:13:28.000Z,56.8
2023-07-25T12:14:44.000Z,55.6
2023-07-25T12:16:01.047Z,55.2
2023-07-25T12:17:17.365Z,55.9
2023-07-25T12:18:33.000Z,55.6
2023-07-25T12:19:49.756Z,56.5
2023-07-25T12:21:05.000Z,56
2023-07-25T12:22:22.137Z,55.5
2023-07-25T12:23:38.331Z,55.8
2023-07-25T12:24:54.000Z,55.7
2023-07-25T12:26:10.000Z,54.8
2023-07-25T12:27:26.000Z,55.3
2023-07-25T12:28:43.000Z,55.9
2023-07-25T12:29:59.000Z,56
2023-07-25T12:31:15.000Z,57.4
2023-07-25T12:32:13.686Z,59.3
2023-07-25T12:33:48.000Z,60.6
2023-07-25T12:35:04.000Z,61
2023-07-25T12:36:20.387Z,59.6
2023-07-25T12:37:36.000Z,60
2023-07-25T12:38:52.000Z,59.9
2023-07-25T12:40:08.967Z,58.6
2023-07-25T12:41:25.000Z,59.4
2023-07-25T12:42:41.000Z,60.1
2023-07-25T12:43:57.000Z,60.3
2023-07-25T12:45:13.741Z,60.7
2023-07-25T12:46:29.000Z,60.8
2023-07-25T12:47:46.000Z,60.9
2023-07-25T12:49:02.000Z,60.9
2023-07-25T12:50:18.000Z,60.6
2023-07-25T12:51:34.000Z,60.4
2023-07-25T12:52:50.000Z,61.2
2023-07-25T12:54:07.102Z,62
2023-07-25T12:55:23.000Z,60.8
2023-07-25T12:56:39.000Z,60.2
2023-07-25T12:57:55.806Z,60.1
2023-07-25T12:59:11.986Z,60.5
2023-07-25T13:00:10.179Z,61.4
2023-07-25T13:01:44.000Z,61.9
2023-07-25T13:03:00.565Z,60.9
2023-07-25T13:04:16.759Z,61.3
2023-07-25T13:05:32.000Z,61.3
2023-07-25T13:06:49.146Z,61.5
2023-07-25T13:08:05.000Z,61.7
2023-07-25T13:09:21.000Z,61.3
2023-07-25T13:10:37.000Z,61.4
2023-07-25T13:11:53.000Z,61
2023-07-25T13:13:10.111Z,59.2
2023-07-25T13:14:26.000Z,59.6
2023-07-25T13:15:42.000Z,59.9
2023-07-25T13:16:58.000Z,58.9
2023-07-25T13:18:14.000Z,58.4
2023-07-25T13:19:31.000Z,59.4
2023-07-25T13:20:47.000Z,58.9
2023-07-25T13:22:03.000Z,57.4
2023-07-25T13:23:19.669Z,57.4
2023-07-25T13:24:35.998Z,56.8
2023-07-25T13:25:52.000Z,56.9
2023-07-25T13:27:08.000Z,57.4
2023-07-25T13:28:24.000Z,56.4
2023-07-25T13:29:40.764Z,56.6
2023-07-25T13:30:56.000Z,57
2023-07-25T13:32:13.153Z,56.2
2023-07-25T13:33:29.364Z,54.8
2023-07-25T13:34:45.543Z,55.8
2023-07-25T13:36:01.742Z,55.3
2023-07-25T13:37:17.933Z,54.4
2023-07-25T13:38:34.000Z,54
2023-07-25T13:39:50.000Z,55.5
2023-07-25T13:41:06.000Z,53.4
2023-07-25T13:42:22.000Z,53.6
2023-07-25T13:43:38.000Z,53.2
2023-07-25T13:44:55.000Z,53.3
2023-07-25T13:46:11.298Z,53.7
2023-07-25T13:47:27.000Z,54.5
2023-07-25T13:48:43.697Z,54.9
2023-07-25T13:49:58.000Z,54.6
2023-07-25T13:51:15.000Z,54.6
2023-07-25T13:52:31.000Z,53.9
2023-07-25T13:53:47.484Z,54.9
2023-07-25T13:55:03.680Z,53.4
2023-07-25T13:56:19.000Z,52.6
2023-07-25T13:57:36.000Z,52
2023-07-25T13:58:52.000Z,50.3
2023-07-25T14:00:08.000Z,49.9
2023-07-25T14:01:24.655Z,48.6
2023-07-25T14:02:40.000Z,47.4
2023-07-25T14:03:57.052Z,47.3
2023-07-25T14:05:13.000Z,47
2023-07-25T14:06:29.000Z,47.3
2023-07-25T14:07:45.000Z,46.8
2023-07-25T14:09:01.000Z,46.9
2023-07-25T14:10:18.024Z,47.2
2023-07-25T14:11:34.233Z,47.7
2023-07-25T14:12:50.000Z,47.6
2023-07-25T14:14:06.731Z,47
2023-07-25T14:15:22.000Z,47.4
2023-07-25T14:16:39.000Z,50.3
2023-07-25T14:17:55.318Z,47.9
2023-07-25T14:19:11.000Z,47.3
2023-07-25T14:20:27.000Z,47.5
2023-07-25T14:21:43.903Z,49.7
2023-07-25T14:23:00.000Z,47.5
2023-07-25T14:24:16.000Z,47.8
2023-07-25T14:25:32.000Z,46.7
2023-07-25T14:26:48.684Z,45.7
2023-07-25T14:28:04.880Z,47.9
2023-07-25T14:29:21.073Z,46.9
2023-07-25T14:30:36.291Z,47.6
2023-07-25T14:31:52.000Z,46.7
2023-07-25T14:33:08.000Z,47.3
2023-07-25T14:34:24.000Z,47.7
2023-07-25T14:35:41.077Z,46.7
2023-07-25T14:36:57.000Z,46.7
2023-07-25T14:38:13.000Z,46.8
2023-07-25T14:39:29.000Z,47.1
2023-07-25T14:40:45.000Z,46
2023-07-25T14:42:02.000Z,45.7
2023-07-25T14:43:18.000Z,45.6
2023-07-25T14:44:34.000Z,45.6
2023-07-25T14:45:50.000Z,45.8
2023-07-25T14:47:06.828Z,46.7
2023-07-25T14:48:23.000Z,48.7
2023-07-25T14:49:39.225Z,48
2023-07-25T14:50:55.000Z,46.9
2023-07-25T14:52:11.000Z,48.6
2023-07-25T14:53:27.805Z,49.8
2023-07-25T14:54:26.000Z,50.7
2023-07-25T14:56:00.000Z,51.2
2023-07-25T14:57:16.000Z,52.4
2023-07-25T14:58:32.000Z,53.8
2023-07-25T14:59:48.000Z,52.6
2023-07-25T15:01:04.000Z,53.7
2023-07-25T15:02:21.000Z,53.5
2023-07-25T15:03:37.000Z,52.8
2023-07-25T15:04:35.563Z,53.2
2023-07-25T15:06:08.000Z,51.7
2023-07-25T15:07:24.983Z,52.3
2023-07-25T15:08:41.165Z,53.6
2023-07-25T15:09:57.000Z,52.2
2023-07-25T15:11:13.561Z,52.2
2023-07-25T15:12:29.755Z,54
2023-07-25T15:13:45.000Z,51.7
2023-07-25T15:15:02.000Z,51.4
2023-07-25T15:16:18.000Z,52
2023-07-25T15:17:34.000Z,53.1
2023-07-25T15:18:50.000Z,52.5
2023-07-25T15:20:06.000Z,51
2023-07-25T15:21:23.000Z,51
2023-07-25T15:22:39.000Z,51.5
2023-07-25T15:23:55.000Z,50.6
2023-07-25T15:25:11.000Z,51.6
2023-07-25T15:26:27.000Z,51.6
2023-07-25T15:27:44.109Z,51.2
2023-07-25T15:29:00.000Z,51.7
2023-07-25T15:30:16.619Z,52.3
2023-07-25T15:31:32.000Z,53.3
2023-07-25T15:32:49.002Z,52.2
2023-07-25T15:34:05.196Z,52.2
2023-07-25T15:35:21.000Z,50.9
2023-07-25T15:36:37.000Z,51.3
2023-07-25T15:37:53.000Z,50.8
2023-07-25T15:39:09.000Z,51
2023-07-25T15:40:26.173Z,50.4
2023-07-25T15:41:42.000Z,49.3
2023-07-25T15:42:40.563Z,49.1
2023-07-25T15:44:14.000Z,48.7
2023-07-25T15:45:12.954Z,50.5
2023-07-25T15:46:47.271Z,51.6
2023-07-25T15:48:03.000Z,50.3
2023-07-25T15:49:19.661Z,50.2
2023-07-25T15:50:35.000Z,51.3
2023-07-25T15:51:52.052Z,52.1
2023-07-25T15:53:08.000Z,52.4
2023-07-25T15:54:24.000Z,54.3
2023-07-25T15:55:40.644Z,55.6
2023-07-25T15:56:56.834Z,55.8
2023-07-25T15:58:13.000Z,56.7
2023-07-25T15:59:29.225Z,55.5
2023-07-25T16:00:45.420Z,55.9
2023-07-25T16:02:01.000Z,56.4
2023-07-25T16:03:17.000Z,56.9
2023-07-25T16:04:34.006Z,57.9
2023-07-25T16:05:50.000Z,56.8
2023-07-25T16:07:06.000Z,55.9
2023-07-25T16:08:04.591Z,57.2
2023-07-25T16:09:38.000Z,55.7
2023-07-25T16:10:36.981Z,54.6
2023-07-25T16:12:11.000Z,55.8
2023-07-25T16:13:27.372Z,56.9
2023-07-25T16:14:43.000Z,55.9
2023-07-25T16:15:59.000Z,55.9
2023-07-25T16:17:15.957Z,56.4
2023-07-25T16:18:32.156Z,56.1
2023-07-25T16:19:48.469Z,56.8
2023-07-25T16:21:04.678Z,57.1
2023-07-25T16:22:20.000Z,54.9
2023-07-25T16:23:37.000Z,55.3
2023-07-25T16:24:53.249Z,54.8
2023-07-25T16:26:09.000Z,53.8
2023-07-25T16:27:25.000Z,53.9
2023-07-25T16:28:41.000Z,54.8
2023-07-25T16:29:58.000Z,55.9
2023-07-25T16:31:14.224Z,56.1
2023-07-25T16:32:30.000Z,56.2
2023-07-25T16:33:46.622Z,55.6
2023-07-25T16:35:02.000Z,56.1
2023-07-25T16:36:01.003Z,57.9
2023-07-25T16:37:35.199Z,56.1
2023-07-25T16:38:51.393Z,56.3
2023-07-25T16:40:07.000Z,56.4
2023-07-25T16:41:23.000Z,56.2
2023-07-25T16:42:39.000Z,56.3
2023-07-25T16:43:56.188Z,57.2
2023-07-25T16:45:12.000Z,57.4
2023-07-25T16:46:10.685Z,57.4
2023-07-25T16:47:44.000Z,56.4
2023-07-25T16:48:43.075Z,57.1
2023-07-25T16:50:17.270Z,56.4
2023-07-25T16:51:33.000Z,56.4
2023-07-25T16:52:49.000Z,56.5
2023-07-25T16:54:05.854Z,56.3
2023-07-25T16:55:22.000Z,57.1
2023-07-25T16:56:20.244Z,56.4
2023-07-25T16:57:54.000Z,55.8
2023-07-25T16:59:10.635Z,55.3
2023-07-25T17:00:26.000Z,55.3
2023-07-25T17:01:43.000Z,56
2023-07-25T17:02:59.000Z,56.2
2023-07-25T17:04:15.000Z,56.4
2023-07-25T17:05:31.000Z,55.9